Pagrindinis puslapis
METAR-TAF:

METAR-TAF

Oro uostai :

Çardak, Turkija

platuma: 37-47N, ilguma: 029-42E, Aukštis: 849 m

Dabartinis oras

Ataskaita buvo paskelbta 1 valandą ir 7 minutes, ne 01:50 UTC
Ramus vėjas
Temperatūra 4°C
Drėgmė 87%
Slėgis 1013 hPa
Matomumas 10 km arba daugiau
Mažai debesys ne aukštis 1200 ft
Išsisklaidę debesys ne aukštis 3000 ft
Su prošvaistėmis ne aukštis 8000 ft

METAR: LTAY 010150Z 00000KT 9999 FEW012 SCT030 BKN080 04/02 Q1013

Laikas: 05:57 (02:57 UTC)

Prognozė

Ataskaita buvo paskelbta 1 valandą ir 17 minutes, ne 01:40 UTC
Prognozė galioja nuo 01 metu 03 UTC su 01 metu 12 UTC
Vėjas 12 kt iš Vakarų
Matomumas 10 km arba daugiau
Mažai debesys ne aukštis 500 ft
Išsisklaidę debesys ne aukštis 3000 ft
Su prošvaistėmis ne aukštis 9000 ft
Laikinai
nuo 01 metu 03 UTC su 01 metu 07 UTC
Matomumas: 3000 m
sniegas, lietus
Laikinai
nuo 01 metu 09 UTC su 01 metu 12 UTC
Vėjas 15 kt iš Vakarų/Šiaurės Vakarų su gūsio iki 25 kt

TAF: LTAY 010140Z 0103/0112 28012KT 9999 FEW005 SCT030 BKN090 TEMPO 0103/0107 3000 -SHSNRA TEMPO 0109/0112 30015G25KT

Orai ataskaitas ir orų prognozės (METAR, TAF).

turimą stotys yra geltonos ir raudonos taškus žemėlapyje.

Perkelti pele per norėdami pamatyti stoties vardą.

Tada spustelėkite, norėdami matyti oro stebėjimo ir prognozės.

Norėdami pakeisti žemėlapį: spustelėkite ant žalios mygtukų su juodo kryžiaus žemyn,; žalią mygtuką su brūkšneliu, jei norite nutolinti; arba žalių rodyklių gretimoms žemėlapius.


METAR-TAF: